sensor_id;sensor_type;location;lat;lon;timestamp;P1;durP1;ratioP1;P2;durP2;ratioP2
72611;SDS011;60655;52.182;4.474;2023-03-26T00:01:50;11.95;;;1.73;;
72611;SDS011;60655;52.182;4.474;2023-03-26T00:06:01;10.02;;;1.85;;
72611;SDS011;60655;52.182;4.474;2023-03-26T00:08:03;13.40;;;2.45;;
72611;SDS011;60655;52.182;4.474;2023-03-26T00:10:04;13.75;;;2.50;;
72611;SDS011;60655;52.182;4.474;2023-03-26T00:12:06;14.30;;;4.30;;
72611;SDS011;60655;52.182;4.474;2023-03-26T00:16:09;11.50;;;2.40;;
72611;SDS011;60655;52.182;4.474;2023-03-26T00:18:13;10.93;;;2.13;;
72611;SDS011;60655;52.182;4.474;2023-03-26T00:20:14;11.18;;;2.13;;
72611;SDS011;60655;52.182;4.474;2023-03-26T00:22:15;8.90;;;1.85;;
72611;SDS011;60655;52.182;4.474;2023-03-26T00:26:17;8.80;;;1.50;;
72611;SDS011;60655;52.182;4.474;2023-03-26T00:28:18;7.95;;;1.50;;
72611;SDS011;60655;52.182;4.474;2023-03-26T00:30:22;11.77;;;1.95;;
72611;SDS011;60655;52.182;4.474;2023-03-26T00:32:23;7.75;;;1.83;;
72611;SDS011;60655;52.182;4.474;2023-03-26T00:34:27;9.45;;;1.20;;
72611;SDS011;60655;52.182;4.474;2023-03-26T00:38:29;10.35;;;1.70;;
72611;SDS011;60655;52.182;4.474;2023-03-26T00:40:30;9.13;;;1.63;;
72611;SDS011;60655;52.182;4.474;2023-03-26T00:42:32;13.43;;;2.05;;
72611;SDS011;60655;52.182;4.474;2023-03-26T00:44:33;10.65;;;1.75;;
72611;SDS011;60655;52.182;4.474;2023-03-26T00:46:35;6.28;;;1.55;;
72611;SDS011;60655;52.182;4.474;2023-03-26T00:48:36;10.02;;;1.60;;
72611;SDS011;60655;52.182;4.474;2023-03-26T00:50:38;9.18;;;1.55;;
72611;SDS011;60655;52.182;4.474;2023-03-26T00:52:43;11.27;;;1.80;;
72611;SDS011;60655;52.182;4.474;2023-03-26T00:54:46;8.13;;;1.40;;
72611;SDS011;60655;52.182;4.474;2023-03-26T00:56:47;10.68;;;1.70;;
72611;SDS011;60655;52.182;4.474;2023-03-26T00:58:48;12.10;;;1.75;;
72611;SDS011;60655;52.182;4.474;2023-03-26T01:00:51;9.52;;;1.27;;
72611;SDS011;60655;52.182;4.474;2023-03-26T01:02:57;12.27;;;1.67;;
72611;SDS011;60655;52.182;4.474;2023-03-26T01:04:58;7.93;;;1.35;;
72611;SDS011;60655;52.182;4.474;2023-03-26T01:07:07;9.63;;;1.23;;
72611;SDS011;60655;52.182;4.474;2023-03-26T01:09:12;9.95;;;1.30;;
72611;SDS011;60655;52.182;4.474;2023-03-26T01:11:19;10.32;;;1.27;;
72611;SDS011;60655;52.182;4.474;2023-03-26T01:13:23;6.40;;;1.20;;
72611;SDS011;60655;52.182;4.474;2023-03-26T01:15:25;9.93;;;1.30;;
72611;SDS011;60655;52.182;4.474;2023-03-26T01:17:30;9.32;;;1.50;;
72611;SDS011;60655;52.182;4.474;2023-03-26T01:19:38;10.48;;;1.40;;
72611;SDS011;60655;52.182;4.474;2023-03-26T01:22:08;8.30;;;1.30;;
72611;SDS011;60655;52.182;4.474;2023-03-26T01:24:11;10.65;;;1.70;;
72611;SDS011;60655;52.182;4.474;2023-03-26T01:28:26;8.48;;;1.30;;
72611;SDS011;60655;52.182;4.474;2023-03-26T01:30:36;9.95;;;1.70;;
72611;SDS011;60655;52.182;4.474;2023-03-26T01:34:53;7.07;;;1.50;;
72611;SDS011;60655;52.182;4.474;2023-03-26T01:37:03;9.15;;;2.05;;
72611;SDS011;60655;52.182;4.474;2023-03-26T01:39:27;7.40;;;1.42;;
72611;SDS011;60655;52.182;4.474;2023-03-26T01:41:53;7.22;;;1.52;;
72611;SDS011;60655;52.182;4.474;2023-03-26T01:46:17;8.45;;;1.50;;
72611;SDS011;60655;52.182;4.474;2023-03-26T01:48:33;10.57;;;1.75;;
72611;SDS011;60655;52.182;4.474;2023-03-26T01:50:37;7.05;;;1.45;;
72611;SDS011;60655;52.182;4.474;2023-03-26T01:54:39;8.23;;;1.45;;
72611;SDS011;60655;52.182;4.474;2023-03-26T01:57:02;9.75;;;1.40;;
72611;SDS011;60655;52.182;4.474;2023-03-26T01:59:22;12.70;;;1.90;;
72611;SDS011;60655;52.182;4.474;2023-03-26T02:01:44;9.35;;;1.58;;
72611;SDS011;60655;52.182;4.474;2023-03-26T02:04:07;6.68;;;1.80;;
72611;SDS011;60655;52.182;4.474;2023-03-26T02:06:25;7.97;;;1.55;;
72611;SDS011;60655;52.182;4.474;2023-03-26T02:08:59;9.23;;;1.40;;
72611;SDS011;60655;52.182;4.474;2023-03-26T02:11:06;7.38;;;1.70;;
72611;SDS011;60655;52.182;4.474;2023-03-26T02:13:12;8.00;;;1.90;;
72611;SDS011;60655;52.182;4.474;2023-03-26T02:15:13;5.95;;;1.27;;
72611;SDS011;60655;52.182;4.474;2023-03-26T02:19:16;8.35;;;1.65;;
72611;SDS011;60655;52.182;4.474;2023-03-26T02:21:21;12.32;;;1.77;;
72611;SDS011;60655;52.182;4.474;2023-03-26T02:23:25;5.03;;;1.20;;
72611;SDS011;60655;52.182;4.474;2023-03-26T02:25:29;8.13;;;1.63;;
72611;SDS011;60655;52.182;4.474;2023-03-26T02:29:31;9.63;;;1.58;;
72611;SDS011;60655;52.182;4.474;2023-03-26T02:31:37;13.02;;;1.65;;
72611;SDS011;60655;52.182;4.474;2023-03-26T02:33:38;7.65;;;1.65;;
72611;SDS011;60655;52.182;4.474;2023-03-26T02:35:40;9.40;;;1.80;;
72611;SDS011;60655;52.182;4.474;2023-03-26T02:37:45;8.48;;;1.48;;
72611;SDS011;60655;52.182;4.474;2023-03-26T02:39:46;8.52;;;1.38;;
72611;SDS011;60655;52.182;4.474;2023-03-26T02:43:48;12.18;;;2.13;;
72611;SDS011;60655;52.182;4.474;2023-03-26T02:45:49;5.35;;;1.42;;
72611;SDS011;60655;52.182;4.474;2023-03-26T02:47:50;6.82;;;1.40;;
72611;SDS011;60655;52.182;4.474;2023-03-26T02:51:52;6.63;;;1.50;;
72611;SDS011;60655;52.182;4.474;2023-03-26T02:53:55;8.35;;;1.58;;
72611;SDS011;60655;52.182;4.474;2023-03-26T02:57:58;9.95;;;1.70;;
72611;SDS011;60655;52.182;4.474;2023-03-26T03:02:02;7.68;;;1.40;;
72611;SDS011;60655;52.182;4.474;2023-03-26T03:04:03;8.02;;;1.67;;
72611;SDS011;60655;52.182;4.474;2023-03-26T03:06:04;10.68;;;1.80;;
72611;SDS011;60655;52.182;4.474;2023-03-26T03:08:05;9.63;;;1.70;;
72611;SDS011;60655;52.182;4.474;2023-03-26T03:10:07;11.02;;;1.90;;
72611;SDS011;60655;52.182;4.474;2023-03-26T03:12:09;10.18;;;2.03;;
72611;SDS011;60655;52.182;4.474;2023-03-26T03:14:10;13.25;;;2.17;;
72611;SDS011;60655;52.182;4.474;2023-03-26T03:18:12;8.10;;;1.90;;
72611;SDS011;60655;52.182;4.474;2023-03-26T03:22:14;24.75;;;3.30;;
72611;SDS011;60655;52.182;4.474;2023-03-26T03:26:18;22.58;;;4.28;;
72611;SDS011;60655;52.182;4.474;2023-03-26T03:28:21;35.25;;;5.05;;
72611;SDS011;60655;52.182;4.474;2023-03-26T03:30:23;34.10;;;4.55;;
72611;SDS011;60655;52.182;4.474;2023-03-26T03:32:24;29.67;;;4.63;;
72611;SDS011;60655;52.182;4.474;2023-03-26T03:34:25;32.35;;;4.75;;
72611;SDS011;60655;52.182;4.474;2023-03-26T03:36:27;32.78;;;4.70;;
72611;SDS011;60655;52.182;4.474;2023-03-26T03:38:29;34.65;;;4.53;;
72611;SDS011;60655;52.182;4.474;2023-03-26T03:42:31;30.17;;;4.28;;
72611;SDS011;60655;52.182;4.474;2023-03-26T03:46:33;33.95;;;4.85;;
72611;SDS011;60655;52.182;4.474;2023-03-26T03:50:37;25.70;;;4.30;;
72611;SDS011;60655;52.182;4.474;2023-03-26T03:54:39;34.63;;;5.05;;
72611;SDS011;60655;52.182;4.474;2023-03-26T03:58:41;35.67;;;5.68;;
72611;SDS011;60655;52.182;4.474;2023-03-26T04:00:44;35.03;;;5.15;;
72611;SDS011;60655;52.182;4.474;2023-03-26T04:04:46;31.38;;;5.50;;
72611;SDS011;60655;52.182;4.474;2023-03-26T04:06:49;25.15;;;5.55;;
72611;SDS011;60655;52.182;4.474;2023-03-26T04:08:51;32.90;;;5.72;;
72611;SDS011;60655;52.182;4.474;2023-03-26T04:12:52;30.55;;;5.07;;
72611;SDS011;60655;52.182;4.474;2023-03-26T04:16:55;31.73;;;5.60;;
72611;SDS011;60655;52.182;4.474;2023-03-26T04:18:56;27.90;;;5.25;;
72611;SDS011;60655;52.182;4.474;2023-03-26T04:20:57;33.88;;;5.70;;
72611;SDS011;60655;52.182;4.474;2023-03-26T04:23:02;43.47;;;5.82;;
72611;SDS011;60655;52.182;4.474;2023-03-26T04:25:04;45.00;;;6.35;;
72611;SDS011;60655;52.182;4.474;2023-03-26T04:27:07;29.80;;;5.45;;
72611;SDS011;60655;52.182;4.474;2023-03-26T04:29:12;36.92;;;6.32;;
72611;SDS011;60655;52.182;4.474;2023-03-26T04:31:17;33.25;;;5.00;;
72611;SDS011;60655;52.182;4.474;2023-03-26T04:33:23;39.05;;;5.50;;
72611;SDS011;60655;52.182;4.474;2023-03-26T04:35:24;29.60;;;5.45;;
72611;SDS011;60655;52.182;4.474;2023-03-26T04:39:33;24.70;;;4.95;;
72611;SDS011;60655;52.182;4.474;2023-03-26T04:41:35;31.15;;;4.88;;
72611;SDS011;60655;52.182;4.474;2023-03-26T04:43:36;39.42;;;5.20;;
72611;SDS011;60655;52.182;4.474;2023-03-26T04:45:41;44.08;;;6.88;;
72611;SDS011;60655;52.182;4.474;2023-03-26T04:47:45;30.98;;;5.30;;
72611;SDS011;60655;52.182;4.474;2023-03-26T04:49:48;37.75;;;6.35;;
72611;SDS011;60655;52.182;4.474;2023-03-26T04:53:53;25.67;;;4.75;;
72611;SDS011;60655;52.182;4.474;2023-03-26T04:55:59;26.73;;;4.85;;
72611;SDS011;60655;52.182;4.474;2023-03-26T04:58:06;33.10;;;6.05;;
72611;SDS011;60655;52.182;4.474;2023-03-26T05:00:10;23.42;;;4.57;;
72611;SDS011;60655;52.182;4.474;2023-03-26T05:02:15;31.67;;;4.93;;
72611;SDS011;60655;52.182;4.474;2023-03-26T05:04:17;29.92;;;5.43;;
72611;SDS011;60655;52.182;4.474;2023-03-26T05:08:19;35.05;;;5.65;;
72611;SDS011;60655;52.182;4.474;2023-03-26T05:10:20;41.97;;;6.18;;
72611;SDS011;60655;52.182;4.474;2023-03-26T05:12:22;24.67;;;5.20;;
72611;SDS011;60655;52.182;4.474;2023-03-26T05:14:23;30.80;;;5.78;;
72611;SDS011;60655;52.182;4.474;2023-03-26T05:16:24;32.83;;;6.28;;
72611;SDS011;60655;52.182;4.474;2023-03-26T05:18:26;34.17;;;5.00;;
72611;SDS011;60655;52.182;4.474;2023-03-26T05:20:27;32.30;;;5.60;;
72611;SDS011;60655;52.182;4.474;2023-03-26T05:22:29;36.65;;;6.03;;
72611;SDS011;60655;52.182;4.474;2023-03-26T05:26:31;33.15;;;5.10;;
72611;SDS011;60655;52.182;4.474;2023-03-26T05:28:33;38.25;;;5.38;;
72611;SDS011;60655;52.182;4.474;2023-03-26T05:30:34;37.65;;;6.53;;
72611;SDS011;60655;52.182;4.474;2023-03-26T05:32:35;25.02;;;5.47;;
72611;SDS011;60655;52.182;4.474;2023-03-26T05:34:38;35.22;;;6.90;;
72611;SDS011;60655;52.182;4.474;2023-03-26T05:36:40;38.67;;;6.72;;
72611;SDS011;60655;52.182;4.474;2023-03-26T05:38:42;39.95;;;6.85;;
72611;SDS011;60655;52.182;4.474;2023-03-26T05:40:48;35.58;;;7.28;;
72611;SDS011;60655;52.182;4.474;2023-03-26T05:42:49;34.90;;;6.15;;
72611;SDS011;60655;52.182;4.474;2023-03-26T05:44:50;23.05;;;5.72;;
72611;SDS011;60655;52.182;4.474;2023-03-26T05:46:51;31.30;;;6.10;;
72611;SDS011;60655;52.182;4.474;2023-03-26T05:48:52;36.58;;;7.43;;
72611;SDS011;60655;52.182;4.474;2023-03-26T05:50:55;35.80;;;6.20;;
72611;SDS011;60655;52.182;4.474;2023-03-26T05:52:56;28.27;;;6.57;;
72611;SDS011;60655;52.182;4.474;2023-03-26T05:54:57;26.88;;;5.95;;
72611;SDS011;60655;52.182;4.474;2023-03-26T05:56:58;35.70;;;6.60;;
72611;SDS011;60655;52.182;4.474;2023-03-26T05:59:00;36.75;;;7.65;;
72611;SDS011;60655;52.182;4.474;2023-03-26T06:01:11;29.00;;;6.90;;
72611;SDS011;60655;52.182;4.474;2023-03-26T06:03:16;32.35;;;6.50;;
72611;SDS011;60655;52.182;4.474;2023-03-26T06:05:17;31.98;;;6.80;;
72611;SDS011;60655;52.182;4.474;2023-03-26T06:07:18;31.02;;;7.25;;
72611;SDS011;60655;52.182;4.474;2023-03-26T06:09:19;34.25;;;6.88;;
72611;SDS011;60655;52.182;4.474;2023-03-26T06:11:21;33.13;;;7.18;;
72611;SDS011;60655;52.182;4.474;2023-03-26T06:13:22;32.50;;;7.68;;
72611;SDS011;60655;52.182;4.474;2023-03-26T06:17:23;31.67;;;7.18;;
72611;SDS011;60655;52.182;4.474;2023-03-26T06:21:26;33.88;;;6.10;;
72611;SDS011;60655;52.182;4.474;2023-03-26T06:23:27;38.40;;;6.70;;
72611;SDS011;60655;52.182;4.474;2023-03-26T06:25:28;36.80;;;7.82;;
72611;SDS011;60655;52.182;4.474;2023-03-26T06:27:30;31.60;;;7.68;;
72611;SDS011;60655;52.182;4.474;2023-03-26T06:29:31;45.33;;;8.43;;
72611;SDS011;60655;52.182;4.474;2023-03-26T06:31:32;31.88;;;6.35;;
72611;SDS011;60655;52.182;4.474;2023-03-26T06:33:33;31.30;;;6.53;;
72611;SDS011;60655;52.182;4.474;2023-03-26T06:35:34;42.63;;;7.72;;
72611;SDS011;60655;52.182;4.474;2023-03-26T06:37:35;36.88;;;8.32;;
72611;SDS011;60655;52.182;4.474;2023-03-26T06:39:37;34.92;;;8.27;;
72611;SDS011;60655;52.182;4.474;2023-03-26T06:41:39;34.75;;;8.45;;
72611;SDS011;60655;52.182;4.474;2023-03-26T06:43:40;35.25;;;7.95;;
72611;SDS011;60655;52.182;4.474;2023-03-26T06:45:41;31.13;;;7.72;;
72611;SDS011;60655;52.182;4.474;2023-03-26T06:47:42;36.17;;;8.27;;
72611;SDS011;60655;52.182;4.474;2023-03-26T06:49:43;39.40;;;8.70;;
72611;SDS011;60655;52.182;4.474;2023-03-26T06:51:44;47.45;;;8.75;;
72611;SDS011;60655;52.182;4.474;2023-03-26T06:53:46;46.15;;;9.13;;
72611;SDS011;60655;52.182;4.474;2023-03-26T06:55:47;45.05;;;10.43;;
72611;SDS011;60655;52.182;4.474;2023-03-26T06:57:48;37.83;;;8.68;;
72611;SDS011;60655;52.182;4.474;2023-03-26T06:59:52;40.17;;;9.43;;
72611;SDS011;60655;52.182;4.474;2023-03-26T07:01:53;43.25;;;10.75;;
72611;SDS011;60655;52.182;4.474;2023-03-26T07:05:56;40.65;;;11.70;;
72611;SDS011;60655;52.182;4.474;2023-03-26T07:07:56;37.55;;;10.57;;
72611;SDS011;60655;52.182;4.474;2023-03-26T07:09:57;49.33;;;11.85;;
72611;SDS011;60655;52.182;4.474;2023-03-26T07:11:58;47.85;;;12.70;;
72611;SDS011;60655;52.182;4.474;2023-03-26T07:13:59;51.45;;;12.00;;
72611;SDS011;60655;52.182;4.474;2023-03-26T07:16:00;52.78;;;12.80;;
72611;SDS011;60655;52.182;4.474;2023-03-26T07:18:01;59.00;;;13.20;;
72611;SDS011;60655;52.182;4.474;2023-03-26T07:20:03;61.75;;;15.40;;
72611;SDS011;60655;52.182;4.474;2023-03-26T07:22:06;56.42;;;14.10;;
72611;SDS011;60655;52.182;4.474;2023-03-26T07:24:10;64.65;;;14.75;;
72611;SDS011;60655;52.182;4.474;2023-03-26T07:26:58;43.78;;;13.20;;
72611;SDS011;60655;52.182;4.474;2023-03-26T07:28:46;54.10;;;13.45;;
72611;SDS011;60655;52.182;4.474;2023-03-26T07:30:59;61.90;;;13.57;;
72611;SDS011;60655;52.182;4.474;2023-03-26T07:33:13;64.35;;;12.48;;
72611;SDS011;60655;52.182;4.474;2023-03-26T07:35:29;49.75;;;12.18;;
72611;SDS011;60655;52.182;4.474;2023-03-26T07:46:59;78.50;;;22.10;;
72611;SDS011;60655;52.182;4.474;2023-03-26T07:49:04;53.15;;;13.15;;
72611;SDS011;60655;52.182;4.474;2023-03-26T07:51:05;51.53;;;12.90;;
72611;SDS011;60655;52.182;4.474;2023-03-26T07:53:07;51.95;;;12.00;;
72611;SDS011;60655;52.182;4.474;2023-03-26T07:55:11;49.22;;;10.95;;
72611;SDS011;60655;52.182;4.474;2023-03-26T07:57:57;38.47;;;11.35;;
72611;SDS011;60655;52.182;4.474;2023-03-26T07:59:50;39.85;;;11.60;;
72611;SDS011;60655;52.182;4.474;2023-03-26T08:06:50;37.13;;;10.73;;
72611;SDS011;60655;52.182;4.474;2023-03-26T08:09:05;29.48;;;9.05;;
72611;SDS011;60655;52.182;4.474;2023-03-26T08:23:22;25.63;;;7.97;;
72611;SDS011;60655;52.182;4.474;2023-03-26T08:25:58;18.80;;;5.22;;
72611;SDS011;60655;52.182;4.474;2023-03-26T08:30:19;19.15;;;6.53;;
72611;SDS011;60655;52.182;4.474;2023-03-26T08:32:22;19.35;;;6.03;;
72611;SDS011;60655;52.182;4.474;2023-03-26T08:34:23;19.15;;;6.43;;
72611;SDS011;60655;52.182;4.474;2023-03-26T08:36:24;23.58;;;7.60;;
72611;SDS011;60655;52.182;4.474;2023-03-26T08:38:26;24.08;;;6.82;;
72611;SDS011;60655;52.182;4.474;2023-03-26T08:53:06;19.02;;;5.78;;
72611;SDS011;60655;52.182;4.474;2023-03-26T08:55:43;17.63;;;5.20;;
72611;SDS011;60655;52.182;4.474;2023-03-26T09:10:49;13.68;;;5.07;;
72611;SDS011;60655;52.182;4.474;2023-03-26T09:20:58;14.18;;;4.40;;
72611;SDS011;60655;52.182;4.474;2023-03-26T09:23:09;15.77;;;4.75;;
72611;SDS011;60655;52.182;4.474;2023-03-26T09:33:17;13.02;;;3.90;;
72611;SDS011;60655;52.182;4.474;2023-03-26T09:40:03;12.30;;;3.90;;
72611;SDS011;60655;52.182;4.474;2023-03-26T09:49:42;17.80;;;3.17;;
72611;SDS011;60655;52.182;4.474;2023-03-26T09:52:01;13.93;;;2.63;;
72611;SDS011;60655;52.182;4.474;2023-03-26T09:54:49;15.55;;;3.22;;
72611;SDS011;60655;52.182;4.474;2023-03-26T09:57:13;15.38;;;2.50;;
72611;SDS011;60655;52.182;4.474;2023-03-26T10:06:57;11.10;;;2.30;;
72611;SDS011;60655;52.182;4.474;2023-03-26T10:09:24;14.13;;;2.28;;
72611;SDS011;60655;52.182;4.474;2023-03-26T10:14:25;12.30;;;2.40;;
72611;SDS011;60655;52.182;4.474;2023-03-26T10:16:40;15.40;;;2.05;;
72611;SDS011;60655;52.182;4.474;2023-03-26T10:28:39;16.20;;;2.47;;
72611;SDS011;60655;52.182;4.474;2023-03-26T10:53:53;15.52;;;3.05;;
72611;SDS011;60655;52.182;4.474;2023-03-26T10:58:34;18.75;;;2.70;;
72611;SDS011;60655;52.182;4.474;2023-03-26T11:00:37;27.73;;;3.35;;
72611;SDS011;60655;52.182;4.474;2023-03-26T11:10:16;12.68;;;2.05;;
72611;SDS011;60655;52.182;4.474;2023-03-26T11:12:45;8.10;;;2.15;;
72611;SDS011;60655;52.182;4.474;2023-03-26T11:23:36;14.27;;;2.25;;
72611;SDS011;60655;52.182;4.474;2023-03-26T11:26:01;13.77;;;2.25;;
72611;SDS011;60655;52.182;4.474;2023-03-26T11:30:51;15.10;;;1.85;;
72611;SDS011;60655;52.182;4.474;2023-03-26T11:33:00;16.60;;;2.20;;
72611;SDS011;60655;52.182;4.474;2023-03-26T11:35:14;9.35;;;2.00;;
72611;SDS011;60655;52.182;4.474;2023-03-26T11:37:26;12.38;;;1.98;;
72611;SDS011;60655;52.182;4.474;2023-03-26T11:39:36;13.93;;;1.77;;
72611;SDS011;60655;52.182;4.474;2023-03-26T11:41:45;13.55;;;1.77;;
72611;SDS011;60655;52.182;4.474;2023-03-26T11:43:54;9.88;;;2.20;;
72611;SDS011;60655;52.182;4.474;2023-03-26T11:45:59;25.30;;;5.72;;
72611;SDS011;60655;52.182;4.474;2023-03-26T11:50:27;11.32;;;2.08;;
72611;SDS011;60655;52.182;4.474;2023-03-26T11:52:32;19.38;;;2.03;;
72611;SDS011;60655;52.182;4.474;2023-03-26T11:54:33;11.68;;;1.77;;
72611;SDS011;60655;52.182;4.474;2023-03-26T11:56:36;15.48;;;1.95;;
72611;SDS011;60655;52.182;4.474;2023-03-26T11:58:55;12.25;;;2.13;;
72611;SDS011;60655;52.182;4.474;2023-03-26T12:01:14;15.63;;;1.90;;
72611;SDS011;60655;52.182;4.474;2023-03-26T12:03:17;10.85;;;1.90;;
72611;SDS011;60655;52.182;4.474;2023-03-26T12:05:21;10.02;;;2.03;;
72611;SDS011;60655;52.182;4.474;2023-03-26T12:09:31;14.95;;;2.33;;
72611;SDS011;60655;52.182;4.474;2023-03-26T12:11:32;15.65;;;2.10;;
72611;SDS011;60655;52.182;4.474;2023-03-26T12:15:42;11.43;;;1.88;;
72611;SDS011;60655;52.182;4.474;2023-03-26T12:17:44;11.73;;;1.95;;
72611;SDS011;60655;52.182;4.474;2023-03-26T12:19:46;12.73;;;1.98;;
72611;SDS011;60655;52.182;4.474;2023-03-26T12:21:49;9.48;;;1.63;;
72611;SDS011;60655;52.182;4.474;2023-03-26T12:24:00;10.95;;;1.45;;
72611;SDS011;60655;52.182;4.474;2023-03-26T12:26:10;16.05;;;1.75;;
72611;SDS011;60655;52.182;4.474;2023-03-26T12:28:15;9.25;;;1.60;;
72611;SDS011;60655;52.182;4.474;2023-03-26T12:30:25;14.32;;;1.70;;
72611;SDS011;60655;52.182;4.474;2023-03-26T12:32:30;11.30;;;1.52;;
72611;SDS011;60655;52.182;4.474;2023-03-26T12:34:33;14.60;;;1.92;;
72611;SDS011;60655;52.182;4.474;2023-03-26T12:36:35;10.82;;;1.58;;
72611;SDS011;60655;52.182;4.474;2023-03-26T12:38:38;7.88;;;1.52;;
72611;SDS011;60655;52.182;4.474;2023-03-26T12:40:41;9.13;;;1.83;;
72611;SDS011;60655;52.182;4.474;2023-03-26T12:42:50;11.30;;;1.88;;
72611;SDS011;60655;52.182;4.474;2023-03-26T12:44:52;13.15;;;2.10;;
72611;SDS011;60655;52.182;4.474;2023-03-26T12:49:31;15.48;;;3.63;;
72611;SDS011;60655;52.182;4.474;2023-03-26T12:51:35;14.55;;;2.50;;
72611;SDS011;60655;52.182;4.474;2023-03-26T12:55:58;11.48;;;1.80;;
72611;SDS011;60655;52.182;4.474;2023-03-26T13:00:17;11.30;;;1.80;;
72611;SDS011;60655;52.182;4.474;2023-03-26T13:02:28;8.40;;;1.63;;
72611;SDS011;60655;52.182;4.474;2023-03-26T13:05:05;11.98;;;1.83;;
72611;SDS011;60655;52.182;4.474;2023-03-26T13:07:28;11.45;;;1.60;;
72611;SDS011;60655;52.182;4.474;2023-03-26T13:09:43;9.80;;;1.60;;
72611;SDS011;60655;52.182;4.474;2023-03-26T13:14:12;10.05;;;1.58;;
72611;SDS011;60655;52.182;4.474;2023-03-26T13:32:07;8.45;;;1.30;;
72611;SDS011;60655;52.182;4.474;2023-03-26T13:39:13;11.35;;;1.55;;
72611;SDS011;60655;52.182;4.474;2023-03-26T13:41:44;11.18;;;1.65;;
72611;SDS011;60655;52.182;4.474;2023-03-26T13:46:45;10.23;;;1.30;;
72611;SDS011;60655;52.182;4.474;2023-03-26T13:48:51;8.50;;;1.20;;
72611;SDS011;60655;52.182;4.474;2023-03-26T13:51:03;9.38;;;1.20;;
72611;SDS011;60655;52.182;4.474;2023-03-26T13:53:24;12.88;;;2.63;;
72611;SDS011;60655;52.182;4.474;2023-03-26T13:55:33;7.60;;;1.35;;
72611;SDS011;60655;52.182;4.474;2023-03-26T13:57:42;8.88;;;1.23;;
72611;SDS011;60655;52.182;4.474;2023-03-26T14:01:53;9.48;;;1.63;;
72611;SDS011;60655;52.182;4.474;2023-03-26T14:06:05;10.23;;;1.67;;
72611;SDS011;60655;52.182;4.474;2023-03-26T14:08:24;13.50;;;2.72;;
72611;SDS011;60655;52.182;4.474;2023-03-26T14:10:27;9.43;;;2.00;;
72611;SDS011;60655;52.182;4.474;2023-03-26T14:16:55;11.13;;;2.00;;
72611;SDS011;60655;52.182;4.474;2023-03-26T14:19:12;8.57;;;1.50;;
72611;SDS011;60655;52.182;4.474;2023-03-26T14:24:12;10.68;;;2.00;;
72611;SDS011;60655;52.182;4.474;2023-03-26T14:26:26;6.93;;;1.60;;
72611;SDS011;60655;52.182;4.474;2023-03-26T14:40:55;10.43;;;1.80;;
72611;SDS011;60655;52.182;4.474;2023-03-26T14:43:17;8.23;;;1.70;;
72611;SDS011;60655;52.182;4.474;2023-03-26T14:47:30;10.70;;;1.50;;
72611;SDS011;60655;52.182;4.474;2023-03-26T14:49:53;5.90;;;1.73;;
72611;SDS011;60655;52.182;4.474;2023-03-26T14:52:15;8.38;;;1.50;;
72611;SDS011;60655;52.182;4.474;2023-03-26T14:54:27;9.43;;;1.70;;
72611;SDS011;60655;52.182;4.474;2023-03-26T14:59:01;8.02;;;1.70;;
72611;SDS011;60655;52.182;4.474;2023-03-26T15:15:33;8.40;;;1.40;;
72611;SDS011;60655;52.182;4.474;2023-03-26T15:18:32;8.30;;;1.20;;
72611;SDS011;60655;52.182;4.474;2023-03-26T15:20:37;13.13;;;1.55;;
72611;SDS011;60655;52.182;4.474;2023-03-26T15:25:39;13.25;;;1.52;;
72611;SDS011;60655;52.182;4.474;2023-03-26T15:27:49;5.43;;;1.10;;
72611;SDS011;60655;52.182;4.474;2023-03-26T15:42:32;4.53;;;0.85;;
72611;SDS011;60655;52.182;4.474;2023-03-26T15:51:55;9.65;;;1.65;;
72611;SDS011;60655;52.182;4.474;2023-03-26T15:54:08;9.13;;;2.05;;
72611;SDS011;60655;52.182;4.474;2023-03-26T15:56:38;8.88;;;2.30;;
72611;SDS011;60655;52.182;4.474;2023-03-26T15:58:43;8.18;;;1.25;;
72611;SDS011;60655;52.182;4.474;2023-03-26T16:03:26;10.18;;;1.38;;
72611;SDS011;60655;52.182;4.474;2023-03-26T16:15:22;7.85;;;1.38;;
72611;SDS011;60655;52.182;4.474;2023-03-26T16:17:27;10.20;;;2.10;;
72611;SDS011;60655;52.182;4.474;2023-03-26T16:20:18;5.03;;;1.00;;
72611;SDS011;60655;52.182;4.474;2023-03-26T16:24:39;6.35;;;1.10;;
72611;SDS011;60655;52.182;4.474;2023-03-26T16:31:34;8.35;;;1.50;;
72611;SDS011;60655;52.182;4.474;2023-03-26T16:33:19;10.93;;;1.38;;
72611;SDS011;60655;52.182;4.474;2023-03-26T16:35:47;8.48;;;1.20;;
72611;SDS011;60655;52.182;4.474;2023-03-26T16:42:27;7.60;;;1.08;;
72611;SDS011;60655;52.182;4.474;2023-03-26T16:44:42;6.25;;;1.27;;
72611;SDS011;60655;52.182;4.474;2023-03-26T16:47:14;2.85;;;0.73;;
72611;SDS011;60655;52.182;4.474;2023-03-26T16:58:54;7.50;;;1.85;;
72611;SDS011;60655;52.182;4.474;2023-03-26T17:07:37;7.35;;;0.90;;
72611;SDS011;60655;52.182;4.474;2023-03-26T17:10:06;6.68;;;1.50;;
72611;SDS011;60655;52.182;4.474;2023-03-26T17:12:24;7.85;;;0.95;;
72611;SDS011;60655;52.182;4.474;2023-03-26T17:14:52;8.02;;;0.90;;
72611;SDS011;60655;52.182;4.474;2023-03-26T17:17:22;9.57;;;1.23;;
72611;SDS011;60655;52.182;4.474;2023-03-26T17:28:36;6.88;;;1.15;;
72611;SDS011;60655;52.182;4.474;2023-03-26T17:31:01;5.97;;;1.42;;
72611;SDS011;60655;52.182;4.474;2023-03-26T17:33:27;6.68;;;1.30;;
72611;SDS011;60655;52.182;4.474;2023-03-26T17:35:47;9.30;;;1.30;;
72611;SDS011;60655;52.182;4.474;2023-03-26T17:37:50;8.38;;;1.20;;
72611;SDS011;60655;52.182;4.474;2023-03-26T17:43:55;10.77;;;1.33;;
72611;SDS011;60655;52.182;4.474;2023-03-26T17:45:56;9.13;;;1.60;;
72611;SDS011;60655;52.182;4.474;2023-03-26T17:47:58;10.10;;;1.63;;
72611;SDS011;60655;52.182;4.474;2023-03-26T17:54:24;10.05;;;1.30;;
72611;SDS011;60655;52.182;4.474;2023-03-26T17:56:27;11.48;;;1.30;;
72611;SDS011;60655;52.182;4.474;2023-03-26T17:58:35;8.18;;;1.27;;
72611;SDS011;60655;52.182;4.474;2023-03-26T18:00:42;9.10;;;1.80;;
72611;SDS011;60655;52.182;4.474;2023-03-26T18:02:56;6.57;;;1.27;;
72611;SDS011;60655;52.182;4.474;2023-03-26T18:05:02;8.70;;;1.35;;
72611;SDS011;60655;52.182;4.474;2023-03-26T18:16:34;8.43;;;1.80;;
72611;SDS011;60655;52.182;4.474;2023-03-26T18:18:41;9.68;;;2.22;;
72611;SDS011;60655;52.182;4.474;2023-03-26T18:21:01;4.90;;;1.00;;
72611;SDS011;60655;52.182;4.474;2023-03-26T18:23:10;9.75;;;1.50;;
72611;SDS011;60655;52.182;4.474;2023-03-26T18:25:22;9.10;;;1.25;;
72611;SDS011;60655;52.182;4.474;2023-03-26T18:27:23;6.05;;;1.45;;
72611;SDS011;60655;52.182;4.474;2023-03-26T18:29:27;9.98;;;1.30;;
72611;SDS011;60655;52.182;4.474;2023-03-26T18:31:33;6.72;;;1.30;;
72611;SDS011;60655;52.182;4.474;2023-03-26T18:35:43;5.78;;;0.98;;
72611;SDS011;60655;52.182;4.474;2023-03-26T18:37:50;9.85;;;1.25;;
72611;SDS011;60655;52.182;4.474;2023-03-26T18:39:56;8.48;;;1.23;;
72611;SDS011;60655;52.182;4.474;2023-03-26T18:41:58;6.75;;;1.40;;
72611;SDS011;60655;52.182;4.474;2023-03-26T18:44:01;9.43;;;1.10;;
72611;SDS011;60655;52.182;4.474;2023-03-26T18:46:04;7.10;;;1.20;;
72611;SDS011;60655;52.182;4.474;2023-03-26T18:48:08;7.47;;;1.38;;
72611;SDS011;60655;52.182;4.474;2023-03-26T18:50:17;9.15;;;1.27;;
72611;SDS011;60655;52.182;4.474;2023-03-26T18:52:24;9.02;;;1.33;;
72611;SDS011;60655;52.182;4.474;2023-03-26T18:54:29;5.07;;;1.00;;
72611;SDS011;60655;52.182;4.474;2023-03-26T18:56:35;13.35;;;1.33;;
72611;SDS011;60655;52.182;4.474;2023-03-26T18:58:38;11.02;;;1.55;;
72611;SDS011;60655;52.182;4.474;2023-03-26T19:00:41;9.07;;;1.23;;
72611;SDS011;60655;52.182;4.474;2023-03-26T19:02:42;8.23;;;1.30;;
72611;SDS011;60655;52.182;4.474;2023-03-26T19:04:44;10.70;;;1.17;;